Date,TemperatureHighF,TemperatureAvgF,TemperatureLowF,DewpointHighF,DewpointAvgF,DewpointLowF,HumidityHigh,HumidityAvg,HumidityLow,PressureMaxIn,PressureMinIn,WindSpeedMaxMPH,WindSpeedAvgMPH,GustSpeedMaxMPH,PrecipitationSumIn
2014-1-1,8.1,2.2,-3.8,3.2,-1.0,-7.1,90,86,76,30.48,30.29,10,1,10,0.00
2014-1-2,8.6,0.9,-10.1,4.1,-2.4,-13.5,91,86,77,30.42,30.32,12,1,12,0.00
2014-1-3,17.1,4.1,-11.6,10.4,-0.7,-15.5,89,80,68,30.38,29.80,24,4,28,0.00
2014-1-4,30.9,23.8,17.1,28.2,18.9,8.2,91,82,66,30.01,29.64,22,4,25,0.00
2014-1-5,19.9,17.0,12.9,14.9,12.4,10.0,91,82,73,30.12,29.80,11,2,12,0.00
2014-1-6,12.7,5.9,-0.6,10.6,2.0,-5.1,91,84,75,29.83,29.70,11,3,12,0.01
2014-1-7,10.8,4.7,-1.1,4.8,0.3,-4.7,87,82,70,30.14,29.81,14,3,25,0.00
2014-1-8,16.3,9.4,3.6,10.4,5.8,0.5,91,85,71,30.44,30.14,13,1,15,0.00
2014-1-9,17.1,9.8,-2.9,10.9,5.2,-6.2,90,82,70,30.52,30.22,13,2,14,0.00
2014-1-10,33.6,24.8,14.0,33.1,22.1,9.5,98,89,78,30.22,29.53,11,2,13,0.20
2014-1-11,37.6,34.5,32.0,37.4,33.7,30.4,99,97,93,29.53,29.20,10,2,10,0.31
2014-1-12,41.0,35.2,31.6,31.1,29.0,26.6,94,79,62,29.71,29.48,15,3,15,0.00
2014-1-13,38.8,35.8,30.2,36.5,32.3,27.0,95,87,74,29.59,29.38,11,2,12,0.02
2014-1-14,32.2,28.3,25.9,27.3,23.7,19.2,96,83,62,29.72,29.57,13,2,15,0.12
2014-1-15,25.9,17.8,14.4,24.8,15.8,12.4,96,92,87,29.88,29.59,12,3,16,0.26
2014-1-16,23.7,20.6,16.0,21.9,18.2,13.1,94,90,86,29.76,29.53,16,4,17,0.01
2014-1-17,30.2,24.1,16.3,27.9,22.2,14.2,96,93,88,29.80,29.57,6,1,6,0.01
2014-1-18,25.5,16.9,8.6,18.5,13.7,6.4,94,87,73,29.86,29.66,7,1,7,0.00
2014-1-19,28.6,22.9,15.1,27.0,20.4,11.7,97,90,82,29.66,29.32,20,4,21,0.05
2014-1-20,15.1,5.2,-2.9,12.0,0.3,-6.7,90,80,56,30.17,29.56,8,2,8,0.00
2014-1-21,5.2,-3.1,-10.7,-1.3,-7.2,-14.1,87,82,70,30.30,30.17,6,1,7,0.00
2014-1-22,10.8,5.4,-4.4,8.2,2.2,-8.0,90,86,81,30.18,29.88,18,2,20,0.01
2014-1-23,8.2,1.2,-9.0,5.7,-2.6,-12.6,90,84,72,30.44,30.03,20,3,20,0.02
2014-1-24,20.1,11.7,-9.6,18.9,9.1,-13.0,95,89,81,30.33,29.22,29,6,29,0.08
2014-1-25,21.9,9.7,1.8,21.0,6.7,-2.9,96,87,79,29.62,29.14,12,3,13,0.10
2014-1-26,12.4,4.9,-4.7,10.2,2.1,-8.1,92,88,82,29.62,29.26,10,2,14,0.01
2014-1-27,5.7,0.2,-3.8,3.2,-4.4,-9.4,89,81,68,30.12,29.39,14,2,15,0.00
2014-1-28,9.7,3.4,-6.7,6.8,0.1,-10.1,91,86,75,30.13,29.86,22,4,23,0.00
2014-1-29,18.0,11.1,7.5,12.6,7.6,5.0,91,86,79,29.95,29.81,18,4,20,0.00
2014-1-30,27.3,23.2,16.9,24.6,18.2,12.2,96,81,64,29.89,29.52,18,5,20,0.05
2014-1-31,18.1,13.6,6.4,14.7,10.2,4.1,92,86,78,30.09,29.72,14,2,14,0.05
2014-2-1,20.1,14.3,8.1,17.4,11.9,5.7,94,90,87,30.10,29.93,7,1,8,0.04
2014-2-2,21.4,13.2,6.1,14.7,9.2,2.3,93,84,63,30.26,29.98,7,1,9,0.00
2014-2-3,19.9,9.8,-0.4,11.1,5.1,-3.1,90,81,65,30.31,30.24,12,2,13,0.00
2014-2-4,23.5,15.7,8.6,15.8,11.4,6.4,93,83,69,30.42,30.29,7,1,7,0.00
2014-2-5,16.2,12.6,5.0,11.1,6.8,1.0,86,77,70,30.34,30.21,14,2,14,0.00
2014-2-6,14.4,8.9,1.8,9.7,4.5,-1.1,88,82,74,30.34,30.08,21,3,23,0.00
2014-2-7,15.6,11.5,6.1,10.6,6.9,2.1,89,81,75,30.11,30.02,25,5,29,0.00
2014-2-8,20.7,11.1,1.6,10.6,5.3,-1.3,90,78,62,30.20,30.11,13,2,14,0.00
2014-2-9,19.9,12.2,6.3,14.7,7.4,3.6,89,81,57,30.18,30.02,7,1,8,0.00
2014-2-10,12.6,7.1,-1.8,5.7,1.0,-6.2,88,76,61,30.41,30.17,7,1,7,0.00
2014-2-11,15.3,1.0,-11.7,4.1,-4.9,-15.2,87,77,57,30.50,30.34,13,2,13,0.00
2014-2-12,21.0,15.2,0.7,17.4,11.0,-2.9,90,83,78,30.35,30.04,16,4,18,0.00
2014-2-13,26.1,21.5,18.3,19.8,17.3,14.9,93,84,67,30.04,29.50,14,2,14,0.03
2014-2-14,26.8,19.8,5.2,23.4,17.4,1.9,95,90,84,29.83,29.44,7,2,10,0.09
2014-2-15,16.2,6.6,-2.6,7.7,2.1,-5.4,91,82,66,30.07,29.82,8,1,8,0.00
2014-2-16,17.2,10.5,-3.8,9.9,5.4,-6.9,92,80,55,30.37,30.01,12,2,12,0.03
2014-2-17,22.8,9.3,-7.2,15.4,2.5,-10.8,92,75,53,30.39,29.79,17,3,19,0.07
2014-2-18,34.9,23.5,12.6,25.9,19.1,10.4,93,84,64,29.84,29.55,12,2,14,0.13
2014-2-19,40.8,29.1,19.0,30.2,23.4,17.4,97,81,57,29.89,29.54,13,2,13,0.00
2014-2-20,41.7,32.6,23.9,33.4,26.9,19.6,95,80,56,29.95,29.30,26,4,28,0.05
2014-2-21,37.8,29.6,20.5,36.9,27.3,19.0,98,91,77,29.44,29.11,32,7,32,0.11
2014-2-22,23.9,20.5,17.4,19.6,17.7,15.6,94,89,76,29.83,29.44,17,4,29,0.07
2014-2-23,20.3,15.2,10.2,15.6,9.0,2.1,83,76,66,29.98,29.83,16,3,16,0.00
2014-2-24,16.5,9.9,2.8,8.6,4.0,-0.9,88,77,55,30.14,29.96,15,2,15,0.00
2014-2-25,16.5,7.8,1.8,12.4,2.7,-6.2,90,80,64,30.13,29.96,16,3,16,0.00
2014-2-26,11.1,3.9,-8.5,8.6,-1.1,-12.5,91,80,62,30.01,29.46,23,3,23,0.02
2014-2-27,7.3,-1.4,-15.3,4.3,-8.9,-20.4,88,70,49,30.24,29.46,13,3,13,0.02
2014-2-28,15.6,-1.2,-22.7,6.6,-8.8,-27.2,88,71,49,30.32,30.04,15,3,15,0.01
2014-3-1,14.7,8.7,-2.9,8.4,1.5,-9.8,90,73,56,30.38,30.01,10,2,11,0.03
2014-3-2,9.0,-0.7,-9.0,-3.1,-8.7,-12.8,86,70,43,30.43,30.30,14,2,14,0.00
2014-3-3,14.9,0.5,-14.4,4.1,-7.2,-18.4,86,71,46,30.49,30.32,13,2,15,0.00
2014-3-4,20.7,14.7,8.4,15.6,10.7,3.7,91,84,71,30.32,30.19,10,2,10,0.04
2014-3-5,19.8,8.4,-3.5,9.0,3.2,-6.5,89,80,61,30.60,30.30,17,2,17,0.00
2014-3-6,32.4,13.4,-8.3,14.0,3.4,-11.9,90,67,32,30.59,30.09,8,2,13,0.00
2014-3-7,39.9,25.8,10.0,28.8,18.0,4.5,93,73,57,30.10,29.79,16,2,16,0.00
2014-3-8,27.5,20.2,7.5,24.3,14.1,3.6,94,78,62,30.18,29.96,11,2,11,0.00
2014-3-9,37.4,20.3,0.1,27.9,12.6,-2.7,90,74,50,30.16,29.60,22,4,22,0.00
2014-3-10,51.6,38.0,29.7,36.1,31.4,26.8,91,78,55,29.64,29.36,14,2,14,0.00
2014-3-11,45.0,34.4,27.5,33.1,28.0,20.8,96,78,58,29.83,29.49,9,2,9,0.00
2014-3-12,27.7,14.7,3.6,20.8,5.7,-2.6,85,68,48,30.09,29.82,13,3,23,0.00
2014-3-13,28.0,13.3,-5.1,20.5,4.8,-8.5,88,70,48,30.10,29.75,16,3,16,0.00
2014-3-14,46.8,34.7,25.3,36.1,30.4,20.1,97,85,63,29.75,29.33,15,3,15,0.14
2014-3-15,32.7,19.9,6.1,31.6,13.8,0.7,96,78,59,30.38,29.56,10,3,10,0.00
2014-3-16,19.0,7.3,-2.9,1.8,-2.3,-8.0,84,66,35,30.52,30.26,9,2,9,0.00
2014-3-17,28.4,12.6,-4.4,12.2,3.4,-8.0,88,69,46,30.27,29.94,15,2,15,0.00
2014-3-18,40.5,27.9,19.8,28.4,21.3,10.9,87,76,52,30.03,29.95,17,4,17,0.00
2014-3-19,33.1,31.3,29.8,32.4,29.4,27.3,97,93,84,29.97,29.53,20,4,22,0.07
2014-3-20,35.4,29.8,22.5,29.5,22.8,15.3,96,77,46,30.01,29.64,13,3,13,0.00
2014-3-21,39.0,27.4,14.4,27.0,19.6,12.2,93,74,49,30.04,29.79,11,3,17,0.00
2014-3-22,29.3,22.4,7.3,27.7,16.8,3.0,94,79,59,30.31,29.77,17,2,17,0.00
2014-3-23,23.5,12.6,3.7,9.3,4.3,0.7,90,71,46,30.37,30.31,11,1,12,0.00
2014-3-24,25.2,13.3,0.9,14.2,5.3,-2.4,90,72,46,30.34,29.97,21,2,21,0.00
2014-3-25,22.3,13.4,4.1,13.6,4.7,-1.5,91,70,44,30.17,29.88,12,2,12,0.00
2014-3-26,29.1,15.3,-4.9,14.2,5.6,-8.7,86,67,43,30.27,30.09,17,2,20,0.00
2014-3-27,37.2,30.6,21.7,35.1,27.9,14.0,98,90,63,30.09,29.55,15,3,16,0.15
2014-3-28,38.1,33.5,26.8,35.4,31.3,24.3,99,92,81,30.24,29.45,8,2,9,0.19
2014-3-29,38.7,30.0,23.2,29.1,21.6,15.4,92,73,41,30.30,30.21,13,2,13,0.00
2014-3-30,47.8,30.9,15.6,26.6,20.7,13.6,95,69,34,30.24,30.05,10,1,10,0.00
2014-3-31,51.6,39.4,26.4,32.7,27.8,21.9,89,65,45,30.12,29.86,17,2,17,0.00
2014-4-1,49.3,38.5,26.8,39.9,31.7,24.3,93,77,58,29.91,29.55,24,5,24,0.03
2014-4-2,39.7,30.9,24.1,24.3,20.1,17.2,91,65,48,30.26,29.91,14,2,14,0.01
2014-4-3,35.4,28.2,16.9,27.0,22.4,14.9,95,79,67,30.27,29.96,21,4,23,0.00
2014-4-4,36.0,33.5,27.9,32.5,30.5,26.6,98,89,71,29.93,29.29,23,5,23,0.40
2014-4-5,36.7,27.9,21.4,26.6,22.5,19.0,96,81,60,30.10,29.57,11,3,12,0.03
2014-4-6,55.2,40.8,25.2,31.8,27.1,18.1,81,60,35,30.07,29.93,11,3,16,0.00
2014-4-7,58.5,41.7,29.7,34.2,28.1,22.8,90,62,28,29.96,29.58,14,2,14,0.00
2014-4-8,54.0,41.8,33.6,36.3,31.0,25.5,87,67,39,29.83,29.52,10,2,10,0.00
2014-4-9,50.5,40.3,28.2,28.9,26.5,24.1,86,60,39,29.91,29.66,21,3,21,0.00
2014-4-10,53.4,48.1,36.3,41.5,34.4,27.9,87,60,45,29.80,29.44,16,5,24,0.02
2014-4-11,56.1,42.0,31.1,32.9,28.7,24.1,87,62,31,29.98,29.80,14,2,15,0.00
2014-4-12,42.8,37.8,33.4,37.2,35.1,30.7,97,90,76,30.11,29.87,20,4,22,0.09
2014-4-13,44.4,39.7,36.0,43.2,38.7,35.6,99,96,90,29.88,29.64,16,2,22,0.10
2014-4-14,37.9,32.4,23.5,37.8,31.2,22.3,99,95,86,29.88,29.34,14,3,15,1.08
2014-4-15,28.0,23.2,18.9,22.3,16.9,10.2,95,78,48,30.20,29.86,13,3,13,0.11
2014-4-16,41.9,26.9,9.0,30.7,20.2,6.6,94,78,41,30.40,30.20,17,2,17,0.03
2014-4-17,49.3,39.1,32.7,34.3,29.8,24.8,92,70,49,30.38,30.17,21,4,24,0.00
2014-4-18,41.4,35.5,29.8,32.0,30.4,28.6,97,82,63,30.41,30.21,7,2,7,0.00
2014-4-19,48.9,38.3,27.7,34.2,30.3,26.2,98,75,50,30.51,30.27,19,4,19,0.00
2014-4-20,54.7,42.8,37.0,51.8,38.9,27.1,96,86,63,30.28,30.03,11,2,11,0.33
2014-4-21,53.2,44.9,39.6,48.6,42.6,38.5,99,92,80,30.03,29.70,6,1,9,0.10
2014-4-22,44.6,38.4,34.3,43.5,34.3,29.7,97,85,72,29.96,29.71,12,3,12,0.00
2014-4-23,49.3,38.7,28.4,29.8,23.7,11.5,91,60,27,30.13,29.96,12,2,12,0.00
2014-4-24,54.0,41.5,28.8,32.2,25.7,19.4,88,57,32,30.15,29.88,19,3,19,0.00
2014-4-25,49.6,41.5,38.5,37.9,31.2,19.8,96,68,39,29.91,29.67,16,3,17,0.11
2014-4-26,46.0,38.4,32.5,37.4,33.9,26.8,98,85,59,30.15,29.72,9,2,9,0.12
2014-4-27,48.4,39.1,27.9,30.0,27.5,25.2,95,65,43,30.24,30.13,24,5,25,0.00
2014-4-28,52.2,44.6,37.0,30.7,27.9,23.0,71,53,34,30.19,29.91,35,9,35,0.00
2014-4-29,47.5,42.4,37.9,44.1,37.6,28.6,99,85,48,29.93,29.64,33,9,34,0.87
2014-4-30,54.7,47.4,38.5,52.7,46.9,37.9,100,98,93,29.76,29.69,13,3,15,0.23
2014-5-1,51.1,43.3,39.0,46.0,41.7,37.2,100,94,79,29.69,29.60,9,2,10,0.22
2014-5-2,46.9,42.5,38.8,42.8,40.5,37.2,98,93,82,29.66,29.58,15,2,15,0.01
2014-5-3,47.7,42.6,37.6,46.9,41.8,36.9,99,97,91,29.74,29.55,9,1,9,0.43
2014-5-4,48.9,41.3,34.3,37.9,36.0,33.3,99,83,61,30.07,29.73,10,2,10,0.01
2014-5-5,50.4,39.5,31.5,41.7,35.9,30.7,99,88,65,30.10,29.99,10,1,10,0.00
2014-5-6,55.6,43.5,29.1,35.4,30.5,25.7,97,64,36,30.15,30.05,17,3,18,0.00
2014-5-7,59.0,46.6,38.5,39.7,34.0,29.1,74,62,45,30.14,30.00,19,4,19,0.00
2014-5-8,67.1,52.2,43.3,52.3,43.4,34.5,86,72,56,30.01,29.75,16,3,16,0.00
2014-5-9,67.3,56.7,44.2,64.6,53.3,43.2,100,89,67,29.75,29.47,22,3,24,0.35
2014-5-10,62.2,53.7,45.5,46.2,40.3,34.3,75,62,38,29.90,29.60,11,3,26,0.00
2014-5-11,72.9,54.8,37.4,46.9,41.6,34.7,92,64,37,29.99,29.89,12,2,14,0.00
2014-5-12,58.6,50.2,45.1,46.8,42.4,38.1,95,75,47,30.02,29.87,28,5,28,0.07
2014-5-13,71.1,52.1,43.7,64.0,50.4,43.2,100,94,69,30.03,29.76,13,2,15,0.41
2014-5-14,60.1,50.2,44.2,45.1,40.7,33.4,97,72,46,30.14,30.02,9,2,12,0.00
2014-5-15,44.2,40.5,36.1,41.7,38.7,35.1,98,94,72,30.08,29.74,15,2,15,0.22
2014-5-16,46.6,39.0,33.4,37.4,34.2,32.5,98,84,65,30.02,29.88,12,2,12,0.03
2014-5-17,54.9,42.0,30.2,37.0,32.8,25.5,98,73,33,30.04,29.99,12,1,12,0.01
2014-5-18,70.0,51.5,34.5,42.4,36.8,30.7,89,61,26,30.10,30.04,17,3,19,0.00
2014-5-19,72.1,57.1,43.9,46.9,43.2,40.1,91,63,36,30.15,30.05,13,2,13,0.00
2014-5-20,57.6,52.5,44.4,53.1,49.1,40.5,97,88,79,30.06,29.84,17,2,19,0.47
2014-5-21,74.7,54.0,40.6,58.5,48.9,39.6,99,84,53,29.87,29.75,10,1,10,0.00
2014-5-22,57.7,51.8,47.3,48.2,46.0,42.3,96,81,62,30.05,29.86,12,2,12,0.00
2014-5-23,71.2,57.1,44.4,48.2,44.2,40.8,94,66,34,30.13,30.03,12,2,12,0.00
2014-5-24,73.8,59.6,43.9,49.6,45.3,40.3,94,64,34,30.19,30.07,10,2,10,0.00
2014-5-25,81.0,62.5,49.5,51.1,48.0,45.7,93,64,30,30.08,29.97,13,3,14,0.00
2014-5-26,77.7,70.1,58.1,54.5,51.2,46.9,71,52,43,29.92,29.87,13,3,13,0.00
2014-5-27,78.3,67.4,53.4,61.5,54.8,41.9,96,68,29,29.90,29.83,8,2,8,0.00
2014-5-28,66.6,57.6,46.2,51.3,48.0,43.2,92,71,54,30.10,29.94,15,3,15,0.00
2014-5-29,74.7,61.4,45.3,57.4,52.1,44.1,98,74,49,30.17,30.07,12,1,12,0.00
2014-5-30,77.0,65.2,52.0,58.3,54.0,50.5,98,70,42,30.16,30.09,11,1,11,0.00
2014-5-31,83.5,69.2,53.6,53.8,50.3,45.3,90,55,28,30.21,30.04,15,2,15,0.00
2014-6-1,84.6,70.8,56.5,61.7,52.2,44.1,81,53,37,30.07,29.81,15,3,15,0.00
2014-6-2,84.7,69.8,56.7,71.4,64.4,52.7,98,84,55,29.84,29.55,22,2,22,0.27
2014-6-3,68.5,62.9,54.3,64.9,56.1,48.4,92,79,62,29.83,29.55,17,2,18,0.01
2014-6-4,72.1,60.3,49.8,51.1,47.4,43.0,92,65,38,29.87,29.80,10,2,11,0.00
2014-6-5,73.6,59.1,44.2,49.8,45.6,37.2,92,65,29,29.94,29.86,13,1,13,0.00
2014-6-6,78.6,60.7,44.2,56.1,49.9,42.6,96,71,42,29.96,29.89,10,1,11,0.00
2014-6-7,82.6,64.4,49.5,57.2,52.6,48.6,97,70,38,29.99,29.85,11,1,11,0.00
2014-6-8,72.0,60.6,53.4,56.5,49.9,41.0,93,71,38,30.02,29.85,13,1,13,0.00
2014-6-9,73.8,60.2,42.1,53.4,45.1,39.9,94,61,35,30.06,29.94,17,2,17,0.00
2014-6-10,76.5,62.8,46.9,54.7,48.8,40.8,97,65,31,29.99,29.90,11,1,12,0.00
2014-6-11,63.5,59.2,55.9,58.6,54.2,47.8,99,84,68,29.90,29.70,15,2,15,0.04
2014-6-12,75.0,63.9,57.4,66.6,60.5,52.0,100,90,67,29.71,29.60,13,2,13,0.05
2014-6-13,57.0,52.0,43.3,51.6,46.3,41.5,94,81,71,29.97,29.64,11,2,16,0.00
2014-6-14,67.6,55.3,40.8,51.1,46.6,40.1,98,75,49,30.12,29.96,9,1,9,0.00
2014-6-15,77.0,62.1,54.0,55.2,51.5,46.6,89,70,44,30.09,29.83,19,3,19,0.00
2014-6-16,83.5,69.0,52.2,65.1,55.9,49.3,96,68,34,29.93,29.83,15,2,15,0.00
2014-6-17,69.1,64.3,60.3,67.3,61.0,54.0,99,90,68,29.89,29.63,12,1,14,0.91
2014-6-18,70.5,61.9,54.9,64.6,59.8,54.5,100,93,76,30.08,29.88,14,2,16,0.22
2014-6-19,70.9,62.1,49.8,55.6,42.5,25.2,99,56,21,30.23,30.08,16,3,16,0.00
2014-6-20,61.7,55.2,47.1,54.5,48.2,40.5,90,78,57,30.14,29.97,10,1,10,0.00
2014-6-21,73.8,62.6,51.4,56.1,49.4,43.7,91,64,44,30.01,29.88,11,2,12,0.00
2014-6-22,76.8,66.6,56.7,58.6,54.9,51.1,87,67,48,29.92,29.81,15,2,16,0.00
2014-6-23,76.6,66.4,58.3,68.0,61.6,54.7,97,85,73,29.85,29.78,8,1,8,0.01
2014-6-24,73.6,62.8,55.2,66.7,60.0,53.8,98,91,68,29.92,29.78,12,2,12,0.01
2014-6-25,64.8,59.3,54.3,58.5,54.6,50.2,98,85,69,30.01,29.91,11,2,13,0.01
2014-6-26,76.8,65.6,56.1,60.8,53.0,45.1,92,67,40,30.06,29.99,14,1,14,0.00
2014-6-27,83.1,68.9,51.6,63.1,55.7,49.5,93,65,43,30.07,29.98,10,1,10,0.00
2014-6-28,89.6,75.7,61.2,69.1,63.4,56.8,86,68,44,30.04,29.89,15,2,15,0.00
2014-6-29,82.6,74.9,68.4,72.7,68.8,66.2,98,82,69,29.93,29.73,27,3,27,0.88
2014-6-30,86.0,77.5,71.6,71.8,68.6,64.6,89,75,58,29.75,29.48,17,3,17,0.00
2014-7-1,77.4,73.1,67.8,71.1,64.0,61.5,86,74,62,29.56,29.42,22,4,22,0.00
2014-7-2,70.2,61.7,47.8,63.0,53.8,42.8,94,76,56,29.92,29.55,8,1,8,0.00
2014-7-3,72.1,55.6,44.1,58.5,50.5,41.7,97,84,59,30.12,29.92,14,1,16,0.54
2014-7-4,76.3,62.4,47.8,57.2,50.5,45.7,99,70,37,30.23,30.12,11,1,13,0.00
2014-7-5,78.8,67.2,56.3,58.3,53.8,46.2,88,64,45,30.19,29.93,16,3,17,0.00
2014-7-6,74.8,69.0,64.8,68.9,65.0,59.5,98,87,79,29.80,29.51,17,3,17,0.18
2014-7-7,77.9,70.7,63.9,70.0,64.6,58.8,99,83,54,29.56,29.46,18,2,18,0.19
2014-7-8,65.1,58.5,53.8,61.7,56.7,51.3,98,94,86,29.69,29.42,8,1,9,0.24
2014-7-9,66.6,58.7,51.6,55.8,52.4,49.6,97,81,60,30.00,29.69,12,1,13,0.00
2014-7-10,73.2,60.1,47.1,55.0,50.6,38.7,99,74,30,30.15,30.00,9,1,9,0.00
2014-7-11,77.5,64.4,48.9,65.5,57.2,47.7,97,79,58,30.15,30.04,7,1,10,0.00
2014-7-12,78.1,69.5,62.1,70.0,63.6,56.8,98,82,68,30.05,29.74,10,2,11,0.55
2014-7-13,70.9,64.9,54.7,65.7,59.1,48.7,99,83,52,29.81,29.65,12,1,13,0.73
2014-7-14,75.9,63.4,53.2,61.7,55.4,50.9,95,77,53,29.81,29.72,10,2,11,0.06
2014-7-15,59.5,56.0,53.8,58.8,55.3,52.7,99,97,94,29.80,29.67,8,0,8,0.69
2014-7-16,70.2,60.1,51.1,57.6,52.6,46.9,98,78,55,29.93,29.80,10,1,10,0.00
2014-7-17,76.5,62.1,49.3,56.7,51.8,47.3,99,72,40,30.04,29.93,10,1,11,0.00
2014-7-18,79.2,64.9,51.4,61.0,56.1,50.0,98,75,44,30.14,30.04,11,1,11,0.00
2014-7-19,81.3,67.4,54.1,64.0,57.6,52.3,96,73,42,30.09,29.96,10,1,10,0.00
2014-7-20,80.4,68.5,55.2,66.2,60.5,54.1,97,77,52,30.00,29.94,10,1,10,0.00
2014-7-21,82.4,71.2,58.6,70.0,64.2,57.2,98,80,62,30.00,29.95,12,2,12,0.00
2014-7-22,84.2,73.0,61.7,75.6,66.7,57.9,95,81,60,29.96,29.73,17,2,19,0.21
2014-7-23,69.6,61.7,55.0,58.6,55.5,50.9,94,81,61,30.10,29.88,11,1,11,0.00
2014-7-24,74.1,60.9,47.7,57.0,52.2,46.6,97,75,45,30.12,29.97,9,0,10,0.00
2014-7-25,77.4,63.6,48.4,64.0,55.6,47.3,98,77,59,29.98,29.80,14,2,15,0.01
2014-7-26,76.5,68.0,62.4,69.1,63.5,58.8,97,86,77,29.81,29.65,14,2,14,0.05
2014-7-27,70.9,63.7,59.5,63.3,61.5,57.0,99,93,75,29.79,29.62,14,2,14,0.11
2014-7-28,65.8,58.7,52.5,57.4,51.1,45.7,94,77,55,29.97,29.79,11,1,11,0.00
2014-7-29,72.0,62.6,54.0,59.4,56.8,52.0,96,82,59,29.91,29.85,10,1,10,0.00
2014-7-30,70.0,58.3,48.7,57.7,53.0,48.2,99,84,51,29.96,29.89,10,1,10,0.01
2014-7-31,76.5,63.7,52.5,61.0,56.4,51.4,98,79,47,29.94,29.87,14,1,15,0.00
2014-8-1,78.4,65.1,52.2,61.5,56.7,51.4,99,77,46,30.06,29.93,8,1,8,0.00
2014-8-2,79.0,66.5,54.5,60.8,55.7,52.5,98,71,46,30.11,30.03,10,1,10,0.00
2014-8-3,81.9,66.5,52.5,66.4,60.2,51.4,99,82,47,30.06,29.96,10,1,10,0.00
2014-8-4,75.2,64.2,54.5,62.4,58.8,54.0,99,84,52,30.06,29.99,9,0,9,0.00
2014-8-5,75.6,64.6,52.2,62.6,55.2,47.1,98,75,38,30.06,29.99,9,1,9,0.00
2014-8-6,77.5,64.6,51.3,60.3,55.2,50.2,99,75,42,30.04,29.99,9,0,11,0.00
2014-8-7,79.5,66.4,52.3,63.7,56.4,50.5,98,74,38,30.10,30.03,8,1,9,0.00
2014-8-8,81.3,67.2,54.3,62.1,57.2,52.9,96,73,46,30.13,30.06,7,0,8,0.00
2014-8-9,82.0,68.4,55.2,64.8,57.9,54.1,98,73,42,30.14,30.06,10,1,10,0.00
2014-8-10,81.7,68.3,55.6,63.1,58.5,54.3,98,73,46,30.10,29.96,15,2,15,0.00
2014-8-11,80.8,68.8,60.6,67.1,61.0,55.8,97,77,54,29.98,29.73,14,2,16,0.19
2014-8-12,64.4,60.4,54.9,64.0,60.0,54.1,99,99,98,29.75,29.58,15,1,15,1.79
2014-8-13,70.2,59.6,49.8,56.7,52.7,47.5,99,79,59,29.99,29.75,10,1,12,0.01
2014-8-14,65.8,55.2,44.8,51.6,46.7,43.2,99,76,49,30.00,29.94,10,1,11,0.00
2014-8-15,72.9,59.7,45.7,56.1,50.1,44.1,98,73,48,29.96,29.80,13,1,13,0.00
2014-8-16,70.5,64.9,57.6,65.8,60.7,53.2,98,87,71,29.89,29.67,14,2,14,0.24
2014-8-17,66.6,60.1,54.3,59.2,56.5,53.2,99,89,73,30.02,29.88,10,1,10,0.00
2014-8-18,72.7,61.8,51.1,63.1,57.4,50.5,100,86,67,29.97,29.74,11,2,12,0.01
2014-8-19,75.9,65.5,59.7,69.6,62.9,56.3,99,92,79,29.74,29.61,7,1,10,0.09
2014-8-20,70.3,63.9,60.1,67.5,62.8,59.7,100,96,86,29.88,29.66,11,1,11,0.10
2014-8-21,74.5,66.6,61.3,66.4,63.7,60.3,100,91,74,29.94,29.88,8,1,8,0.01
2014-8-22,76.3,67.6,60.3,69.1,64.4,59.7,100,90,77,30.00,29.90,9,1,10,0.00
2014-8-23,74.8,66.7,58.5,68.5,64.0,57.9,100,91,79,30.07,29.99,14,2,14,0.00
2014-8-24,76.5,67.5,60.6,68.2,64.5,60.1,100,90,74,30.10,30.01,11,2,13,0.01
2014-8-25,80.1,69.9,62.1,73.6,67.2,61.2,99,91,77,30.02,29.87,13,2,13,0.12
2014-8-26,73.9,67.3,54.3,66.2,59.9,52.7,96,78,63,30.04,29.93,11,1,11,0.00
2014-8-27,69.1,58.2,49.1,58.3,52.4,46.8,98,82,58,30.12,30.04,11,0,11,0.01
2014-8-28,68.9,56.7,44.4,54.7,49.3,43.7,99,78,51,30.15,30.06,9,1,10,0.00
2014-8-29,72.1,61.3,53.4,67.6,58.6,49.6,98,91,82,30.09,29.84,14,2,14,0.27
2014-8-30,81.0,71.1,67.5,73.2,68.5,64.4,99,92,73,29.84,29.65,13,2,14,0.41
2014-8-31,69.4,64.5,60.1,66.7,62.8,59.5,99,94,81,29.87,29.70,10,1,10,0.03
2014-9-1,81.7,67.8,60.1,73.2,65.2,59.5,99,92,72,29.85,29.54,16,2,16,0.26
2014-9-2,74.8,67.4,58.8,65.8,60.5,56.5,100,80,57,29.82,29.66,12,1,15,0.00
2014-9-3,79.5,67.8,58.1,64.9,60.9,55.9,99,81,48,29.92,29.82,13,2,15,0.00
2014-9-4,72.7,67.9,62.4,69.3,65.3,59.5,98,92,84,29.95,29.60,18,2,27,0.44
2014-9-5,72.9,65.9,57.7,71.2,63.9,54.3,99,94,85,29.93,29.68,12,1,13,0.52
2014-9-6,71.2,60.6,49.5,57.9,53.5,47.5,98,79,54,30.08,29.92,11,1,15,0.00
2014-9-7,75.9,60.7,46.6,58.8,53.2,45.5,98,79,48,30.11,30.05,18,2,18,0.00
2014-9-8,76.3,64.1,51.4,61.5,56.0,50.2,97,77,53,30.12,29.97,12,2,13,0.00
2014-9-9,79.2,66.5,56.1,64.9,59.2,54.5,96,79,51,29.99,29.86,8,1,9,0.00
2014-9-10,67.6,63.4,52.5,67.3,62.0,51.6,99,95,89,29.88,29.31,17,2,17,0.36
2014-9-11,54.0,48.5,44.4,52.0,45.7,43.5,98,90,74,30.22,29.49,10,1,11,0.05
2014-9-12,50.7,47.0,40.3,45.0,41.5,37.8,98,82,64,30.36,30.22,9,1,10,0.04
2014-9-13,55.2,46.7,42.8,48.0,44.2,41.5,99,91,68,30.28,30.19,7,0,7,0.40
2014-9-14,59.2,49.1,36.7,48.2,43.5,36.0,98,82,59,30.29,30.04,13,2,15,0.00
2014-9-15,62.6,54.0,46.6,53.8,49.0,44.6,99,84,56,30.07,30.01,9,0,13,0.12
2014-9-16,64.0,53.6,41.4,49.8,45.5,40.6,99,77,48,30.09,29.95,15,2,17,0.00
2014-9-17,67.3,56.3,47.7,56.8,49.7,45.1,98,80,53,30.02,29.87,16,2,17,0.00
2014-9-18,54.7,47.3,41.7,44.6,40.7,37.8,92,78,58,30.20,30.02,12,2,15,0.00
2014-9-19,67.8,54.7,40.6,55.9,47.7,38.5,93,79,58,30.22,29.79,16,3,22,0.05
2014-9-20,70.2,63.3,57.4,66.0,60.0,52.7,98,89,66,29.80,29.56,15,3,20,0.99
2014-9-21,57.4,51.6,46.9,56.7,50.1,43.2,99,95,82,30.01,29.54,13,1,17,0.92
2014-9-22,62.2,51.9,39.2,53.6,46.8,38.1,97,83,66,30.14,30.01,12,1,16,0.00
2014-9-23,73.4,60.2,53.4,61.0,55.1,50.7,97,84,61,30.29,30.11,11,2,12,0.00
2014-9-24,75.6,60.0,48.0,62.1,55.5,47.5,100,87,58,30.37,30.27,8,1,11,0.00
2014-9-25,75.6,60.1,50.7,61.2,55.0,50.0,99,85,51,30.30,30.20,7,0,7,0.00
2014-9-26,77.7,60.7,49.6,62.4,55.5,49.1,100,85,52,30.27,30.21,7,0,7,0.01
2014-9-27,77.2,60.7,49.6,62.8,55.9,49.1,100,86,56,30.27,30.14,8,1,9,0.00
2014-9-28,76.5,62.6,50.9,63.0,58.0,50.4,99,87,60,30.15,29.97,9,2,10,0.01
2014-9-29,68.5,56.3,45.9,61.2,54.7,45.3,99,94,75,29.98,29.86,9,1,10,0.23
2014-9-30,52.2,47.5,43.2,51.1,46.2,43.0,99,95,87,30.04,29.96,8,1,9,0.07
2014-10-1,58.1,54.9,52.3,57.2,54.0,50.9,99,97,94,30.06,29.94,7,1,7,0.00
2014-10-2,61.0,57.8,54.0,60.4,57.4,53.4,100,99,98,29.97,29.66,8,1,10,0.78
2014-10-3,63.9,58.4,50.2,63.5,57.9,49.6,100,98,96,29.66,29.12,14,2,19,0.72
2014-10-4,50.2,44.6,40.6,49.6,43.7,40.5,99,96,84,29.50,29.40,17,2,18,0.27
2014-10-5,46.2,43.7,40.6,45.0,40.8,38.1,99,90,75,29.55,29.47,20,3,21,0.10
2014-10-6,56.8,48.2,42.3,45.0,41.9,39.2,94,79,55,29.53,29.47,14,3,19,0.01
2014-10-7,61.5,49.6,43.2,51.6,44.8,40.6,93,84,60,29.60,29.46,16,2,17,0.01
2014-10-8,50.9,43.7,37.8,46.0,40.8,36.7,98,90,65,29.86,29.60,14,0,14,0.07
2014-10-9,52.2,44.9,38.5,42.8,40.3,37.8,99,84,65,30.07,29.82,11,1,11,0.04
2014-10-10,52.0,43.7,37.8,44.6,39.4,36.1,98,85,63,30.14,30.04,10,0,10,0.03
2014-10-11,52.5,41.7,32.7,43.3,38.2,32.0,99,88,67,30.22,30.13,10,1,11,0.00
2014-10-12,61.5,46.4,31.8,44.2,37.7,31.1,99,75,40,30.15,29.97,12,2,13,0.01
2014-10-13,60.1,50.7,43.7,55.9,48.7,40.1,99,93,85,29.97,29.68,9,1,9,0.53
2014-10-14,64.8,58.8,52.2,64.4,58.6,51.8,100,99,95,29.68,29.54,20,2,22,0.89
2014-10-15,53.2,52.2,51.3,52.5,51.8,50.9,100,99,96,29.83,29.63,23,3,23,0.22
2014-10-16,55.4,52.0,50.0,53.8,51.7,49.3,100,99,93,29.81,29.55,9,1,9,0.03
2014-10-17,53.2,49.5,42.4,52.9,49.2,41.9,100,99,97,29.62,29.36,12,1,12,0.12
2014-10-18,45.3,40.8,36.1,41.9,36.8,32.5,98,86,67,30.12,29.62,15,1,15,0.20
2014-10-19,50.4,41.9,32.2,42.6,37.2,31.3,99,84,68,30.12,29.78,12,2,12,0.01
2014-10-20,51.1,48.8,45.9,49.3,46.4,42.4,98,91,86,29.91,29.69,8,1,8,0.01
2014-10-21,47.1,42.5,32.5,44.4,35.7,30.4,95,78,55,30.29,29.91,13,2,14,0.00
2014-10-22,50.4,39.2,31.6,40.5,35.2,30.6,97,86,67,30.40,30.27,8,1,8,0.01
2014-10-23,56.7,40.2,29.1,43.0,35.7,28.6,99,86,50,30.27,30.03,9,1,9,0.01
2014-10-24,54.9,47.7,37.0,50.9,45.4,36.3,99,92,85,30.03,29.80,12,1,12,0.00
2014-10-25,60.8,53.9,46.9,52.5,44.2,35.6,97,72,51,29.80,29.62,15,3,17,0.00
2014-10-26,53.1,45.9,35.6,39.4,37.2,34.2,95,72,57,29.91,29.70,12,2,12,0.00
2014-10-27,50.5,41.7,31.5,48.4,40.4,30.6,99,95,80,29.93,29.62,19,2,19,0.25
2014-10-28,56.8,51.5,47.5,55.9,47.4,40.3,99,87,67,29.69,29.43,22,3,22,0.03
2014-10-29,48.7,43.3,37.9,43.0,38.9,33.4,96,85,72,30.04,29.66,12,2,16,0.09
2014-10-30,44.4,39.9,33.1,42.3,37.7,31.1,97,92,82,30.06,29.89,9,1,9,0.11
2014-10-31,40.6,39.3,36.0,40.1,38.7,34.9,98,98,96,29.92,29.87,15,1,15,0.16
2014-11-1,36.7,31.2,25.2,25.7,23.3,19.2,92,73,55,30.45,30.35,12,1,13,0.00
2014-11-2,47.1,37.6,23.4,38.3,31.7,21.7,97,80,54,30.36,30.09,14,2,14,0.00
2014-11-3,55.9,48.6,44.2,44.8,36.3,30.9,95,64,47,30.10,29.83,15,2,15,0.02
2014-11-4,52.9,47.0,40.8,52.5,45.4,35.4,99,94,79,29.83,29.61,14,2,14,0.40
2014-11-5,42.6,40.0,37.2,39.2,35.9,32.7,97,85,70,30.01,29.75,11,1,12,0.17
2014-11-6,39.7,37.0,32.2,37.9,34.8,29.3,98,92,76,30.05,29.87,18,3,18,0.39
2014-11-7,39.6,33.3,29.5,31.8,27.7,24.6,94,80,58,30.09,29.82,13,1,15,0.03
2014-11-8,39.4,34.4,28.6,38.3,31.1,22.1,98,88,68,29.82,29.55,12,3,16,0.25
2014-11-9,33.8,31.2,25.9,33.6,29.5,23.4,99,94,77,29.86,29.62,19,1,19,0.48
2014-11-10,38.8,31.7,24.1,38.3,30.8,22.8,99,96,90,29.97,29.70,27,4,27,0.20
2014-11-11,37.8,35.4,29.3,37.4,34.8,28.2,99,98,96,29.73,29.54,21,6,22,0.35
2014-11-12,33.4,28.7,25.5,29.1,23.3,19.8,97,80,61,30.08,29.73,10,2,14,0.00
2014-11-13,34.3,28.4,24.6,27.7,24.7,21.0,96,86,66,30.08,30.02,8,1,15,0.03
2014-11-14,35.1,29.1,25.9,26.1,23.3,18.7,93,79,58,30.22,30.08,7,0,7,0.02
2014-11-15,29.7,28.2,25.5,26.6,23.7,20.7,93,83,71,30.23,30.11,20,4,21,0.00
2014-11-16,30.7,27.1,24.4,28.2,24.4,21.0,95,90,75,30.11,29.77,20,3,20,0.17
2014-11-17,29.7,25.0,18.9,27.1,21.4,15.3,94,86,70,29.77,29.49,16,3,18,0.02
2014-11-18,25.7,22.0,19.4,22.1,19.1,16.5,94,89,76,29.88,29.46,14,3,14,0.05
2014-11-19,24.3,20.4,16.2,22.5,18.4,14.0,96,92,82,29.88,29.49,19,3,20,0.09
2014-11-20,25.0,20.8,13.3,21.2,16.1,9.1,95,82,65,30.11,29.59,13,2,16,0.02
2014-11-21,30.2,22.1,11.7,23.9,16.6,9.0,91,79,65,30.33,30.03,22,3,22,0.00
2014-11-22,39.0,36.6,30.2,38.8,34.0,23.9,99,90,73,30.03,29.74,21,5,22,0.00
2014-11-23,47.8,43.4,38.5,47.3,43.1,38.3,100,99,94,29.80,29.24,11,2,11,0.23
2014-11-24,46.4,41.2,32.4,46.2,40.9,31.6,100,98,96,29.37,28.86,14,2,14,0.85
2014-11-25,32.2,28.4,26.4,32.0,27.2,24.6,99,95,92,30.14,29.37,3,0,3,0.20
2014-11-26,28.6,27.1,24.3,26.6,25.1,22.8,96,92,85,30.19,30.11,7,0,8,0.00
2014-11-27,27.5,21.5,15.4,26.8,17.9,11.3,97,86,75,30.29,30.11,9,1,9,0.02
2014-11-28,24.6,20.7,17.1,20.5,17.6,12.7,92,88,79,30.29,30.00,7,2,11,0.00
2014-11-29,40.5,31.9,23.2,38.5,28.8,20.7,93,88,80,30.00,29.48,14,3,14,0.00
2014-11-30,44.6,34.9,25.0,42.1,31.4,16.9,97,87,71,30.14,29.48,11,3,11,0.00
2014-12-1,25.0,18.0,12.0,18.7,10.3,4.1,87,72,55,30.68,30.14,17,2,17,0.00
2014-12-2,28.8,20.5,9.3,24.3,15.3,5.9,89,81,66,30.65,29.88,18,3,18,0.00
2014-12-3,30.9,27.1,21.6,28.0,22.1,13.6,94,81,61,30.22,29.84,14,2,14,0.01
2014-12-4,29.7,23.3,15.6,18.9,15.5,11.5,86,72,54,30.45,30.21,11,2,11,0.00
2014-12-5,34.2,29.5,23.7,31.3,23.3,17.2,91,77,69,30.34,30.16,8,1,8,0.00
2014-12-6,34.5,30.3,20.7,32.0,24.0,16.7,95,78,55,30.68,30.23,15,2,15,0.00
2014-12-7,35.1,26.2,16.2,25.0,20.6,14.2,95,80,59,30.73,30.34,14,2,14,0.00
2014-12-8,36.9,32.7,30.6,32.5,27.2,17.8,98,81,58,30.35,29.98,13,2,14,0.11
2014-12-9,35.1,31.0,21.9,34.0,28.9,18.7,99,92,83,30.40,30.01,12,2,12,0.00
2014-12-10,26.8,21.1,18.0,21.2,17.9,15.4,93,88,76,30.43,30.19,12,2,12,0.00
2014-12-11,34.9,25.9,14.5,30.0,23.5,12.6,95,91,82,30.19,30.05,8,1,8,0.00
2014-12-12,33.6,32.9,30.9,32.9,32.1,29.7,98,97,94,30.16,30.08,7,1,11,0.00
2014-12-13,38.1,35.5,33.4,37.4,35.1,32.9,99,98,96,30.10,29.91,11,2,17,0.00
2014-12-14,40.6,37.8,34.3,39.6,37.2,34.0,100,98,94,30.02,29.93,7,1,7,0.00
2014-12-15,46.2,43.2,39.6,46.2,43.0,39.0,100,99,98,29.97,29.78,7,1,8,0.04
2014-12-16,43.9,40.3,35.2,43.5,40.2,35.1,100,99,99,29.80,29.66,11,2,11,0.38
2014-12-17,35.2,29.1,24.1,35.1,28.3,22.1,99,97,92,30.12,29.79,5,0,5,0.15
2014-12-18,24.3,20.3,13.1,22.5,17.1,11.5,94,87,71,30.25,30.12,6,1,8,0.01
2014-12-19,28.2,18.0,11.5,22.3,15.4,9.5,95,90,77,30.32,30.24,5,0,5,0.00
2014-12-20,28.8,18.6,6.8,25.2,16.0,4.8,95,90,79,30.32,30.26,6,0,7,0.00
2014-12-21,32.2,27.6,21.2,30.6,25.6,19.2,94,92,90,30.27,30.10,10,2,10,0.00
2014-12-22,36.9,32.4,29.5,30.4,28.5,26.8,90,85,76,30.10,29.93,15,4,15,0.00
2014-12-23,37.8,35.8,32.5,37.4,35.1,29.5,99,97,88,29.93,29.70,22,3,22,0.22
2014-12-24,37.8,35.0,32.7,37.8,34.9,32.5,100,99,99,29.76,29.24,6,0,6,0.01
2014-12-25,37.4,35.6,33.6,34.3,33.0,31.8,99,90,84,29.96,29.26,18,3,18,0.01
2014-12-26,39.7,37.9,35.1,37.4,35.8,33.3,94,92,90,30.03,29.95,8,2,9,0.00
2014-12-27,43.3,36.4,30.7,43.2,35.3,26.4,100,96,83,30.02,29.65,12,2,20,0.19
2014-12-28,30.9,27.1,21.6,28.2,21.9,14.4,91,81,73,30.20,29.91,13,2,13,0.00
2014-12-29,21.7,19.8,17.1,15.3,12.5,7.7,84,73,64,30.43,30.20,8,2,8,0.00
2014-12-30,19.0,16.6,12.0,13.8,10.2,4.8,87,76,63,30.48,30.37,12,2,12,0.00
2014-12-31,18.9,14.0,9.7,17.4,11.7,5.5,95,90,77,30.37,29.81,24,4,24,0.02
2015-1-1,25.5,20.8,15.6,24.3,18.7,11.3,96,91,80,29.98,29.65,18,2,18,0.07
2015-1-2,23.4,17.1,12.9,15.4,12.2,9.5,89,81,69,30.30,29.98,11,1,11,0.00